createdAt,value
2018-11-29T00:00:58.964Z,8.88
2018-11-29T00:01:58.708Z,8.94
2018-11-29T00:02:58.668Z,8.87
2018-11-29T00:03:58.402Z,8.93
2018-11-29T00:04:58.384Z,8.93
2018-11-29T00:05:58.655Z,9.04
2018-11-29T00:06:58.849Z,8.99
2018-11-29T00:07:58.571Z,9.01
2018-11-29T00:08:58.305Z,9.02
2018-11-29T00:09:58.540Z,9.06
2018-11-29T00:10:58.519Z,9.05
2018-11-29T00:11:58.501Z,9.1
2018-11-29T00:12:58.731Z,9.09
2018-11-29T00:13:58.209Z,9.18
2018-11-29T00:14:58.436Z,8.97
2018-11-29T00:15:58.193Z,9.15
2018-11-29T00:16:58.151Z,9.12
2018-11-29T00:17:58.659Z,9.12
2018-11-29T00:18:58.109Z,9.09
2018-11-29T00:19:58.089Z,9.12
2018-11-29T00:20:58.324Z,9.2
2018-11-29T00:21:58.570Z,9.1
2018-11-29T00:22:58.281Z,9.13
2018-11-29T00:23:58.521Z,9.18
2018-11-29T00:24:58.252Z,9.13
2018-11-29T00:25:58.248Z,9.15
2018-11-29T00:26:58.221Z,9.18
2018-11-29T00:27:58.445Z,9.09
2018-11-29T00:28:58.163Z,9.13
2018-11-29T00:29:58.404Z,9.12
2018-11-29T00:30:58.125Z,9.15
2018-11-29T00:31:58.118Z,9.15
2018-11-29T00:32:58.095Z,9.13
2018-11-29T00:33:58.067Z,9.15
2018-11-29T00:34:58.060Z,9.12
2018-11-29T00:35:58.292Z,9.23
2018-11-29T00:36:58.009Z,9.15
2018-11-29T00:37:57.996Z,9.13
2018-11-29T00:38:57.978Z,9.18
2018-11-29T00:39:58.208Z,9.23
2018-11-29T00:40:57.678Z,9.2
2018-11-29T00:41:57.917Z,9.16
2018-11-29T00:42:57.901Z,9.21
2018-11-29T00:43:57.632Z,9.16
2018-11-29T00:44:57.857Z,9.18
2018-11-29T00:45:57.853Z,9.25
2018-11-29T00:46:58.080Z,9.2
2018-11-29T00:47:58.056Z,9.18
2018-11-29T00:48:57.800Z,9.23
2018-11-29T00:49:58.013Z,9.24
2018-11-29T00:50:57.738Z,9.27
2018-11-29T00:51:57.723Z,9.27
2018-11-29T00:52:57.706Z,9.25
2018-11-29T00:53:57.940Z,9.25
2018-11-29T00:54:57.916Z,9.27
2018-11-29T00:55:57.391Z,9.21
2018-11-29T00:56:57.637Z,9.27
2018-11-29T00:57:57.604Z,9.2
2018-11-29T00:58:57.850Z,9.15
2018-11-29T00:59:57.574Z,9.27
2018-11-29T01:00:57.300Z,9.2
2018-11-29T01:01:57.797Z,9.13
2018-11-29T01:02:57.516Z,9.16
2018-11-29T01:03:57.487Z,9.16
2018-11-29T01:04:57.469Z,9.16
2018-11-29T01:05:57.709Z,9.21
2018-11-29T01:06:57.690Z,9.16
2018-11-29T01:07:57.666Z,9.18
2018-11-29T01:08:57.391Z,9.24
2018-11-29T01:09:57.629Z,9.23
2018-11-29T01:10:57.103Z,9.25
2018-11-29T01:11:57.609Z,9.25
2018-11-29T01:12:57.062Z,9.15
2018-11-29T01:13:57.557Z,9.15
2018-11-29T01:14:57.281Z,9.27
2018-11-29T01:15:57.273Z,9.27
2018-11-29T01:16:56.988Z,9.3
2018-11-29T01:17:57.686Z,9.23
2018-11-29T01:18:56.993Z,9.23
2018-11-29T01:19:57.190Z,9.25
2018-11-29T01:20:56.914Z,9.31
2018-11-29T01:21:57.152Z,9.3
2018-11-29T01:22:57.129Z,9.31
2018-11-29T01:23:57.122Z,9.25
2018-11-29T01:24:57.090Z,9.32
2018-11-29T01:25:57.086Z,9.28
2018-11-29T01:26:57.302Z,9.24
2018-11-29T01:27:56.782Z,9.31
2018-11-29T01:28:57.266Z,9.28
2018-11-29T01:29:57.247Z,9.31
2018-11-29T01:30:56.986Z,9.27
2018-11-29T01:31:56.952Z,9.31
2018-11-29T01:32:56.980Z,9.4
2018-11-29T01:33:56.920Z,9.4
2018-11-29T01:34:57.154Z,9.45
2018-11-29T01:35:56.887Z,9.42
2018-11-29T01:36:57.119Z,9.43
2018-11-29T01:37:56.855Z,9.43
2018-11-29T01:38:56.827Z,9.43
2018-11-29T01:39:56.809Z,9.46
2018-11-29T01:40:56.792Z,9.43
2018-11-29T01:41:57.027Z,9.45
2018-11-29T01:42:57.003Z,9.43
2018-11-29T01:43:56.986Z,9.34
2018-11-29T01:44:56.712Z,9.43
2018-11-29T01:45:56.438Z,9.34
2018-11-29T01:46:56.421Z,9.45
2018-11-29T01:47:56.656Z,9.43
2018-11-29T01:48:56.640Z,9.42
2018-11-29T01:49:56.872Z,9.48
2018-11-29T01:50:56.353Z,9.45
2018-11-29T01:51:56.592Z,9.43
2018-11-29T01:52:56.573Z,9.48
2018-11-29T01:53:56.556Z,9.52
2018-11-29T01:54:56.527Z,9.53
2018-11-29T01:55:56.775Z,9.48
2018-11-29T01:56:56.742Z,9.56
2018-11-29T01:57:56.722Z,9.56
2018-11-29T01:58:56.482Z,9.57
2018-11-29T01:59:56.431Z,9.53
2018-11-29T02:00:56.415Z,9.53
2018-11-29T02:01:56.660Z,9.61
2018-11-29T02:02:56.403Z,9.61
2018-11-29T02:03:56.358Z,9.6
2018-11-29T02:04:56.085Z,9.6
2018-11-29T02:05:56.070Z,9.61
2018-11-29T02:06:56.301Z,9.66
2018-11-29T02:07:56.544Z,9.61
2018-11-29T02:08:56.259Z,9.58
2018-11-29T02:09:56.252Z,9.57
2018-11-29T02:10:56.228Z,9.64
2018-11-29T02:11:56.233Z,9.56
2018-11-29T02:12:55.947Z,9.64
2018-11-29T02:13:55.918Z,9.63
2018-11-29T02:14:55.896Z,9.6
2018-11-29T02:15:56.131Z,9.67
2018-11-29T02:16:56.367Z,9.71
2018-11-29T02:17:56.091Z,9.73
2018-11-29T02:18:56.079Z,9.71
2018-11-29T02:19:56.057Z,9.73
2018-11-29T02:20:55.786Z,9.71
2018-11-29T02:21:55.767Z,9.68
2018-11-29T02:22:56.000Z,9.7
2018-11-29T02:23:56.281Z,9.73
2018-11-29T02:24:55.709Z,9.71
2018-11-29T02:25:55.950Z,9.73
2018-11-29T02:26:56.180Z,9.71
2018-11-29T02:27:55.910Z,9.78
2018-11-29T02:28:56.180Z,9.83
2018-11-29T02:29:55.866Z,9.78
2018-11-29T02:30:55.858Z,9.79
2018-11-29T02:31:56.090Z,9.78
2018-11-29T02:32:55.810Z,9.86
2018-11-29T02:33:56.059Z,9.91
2018-11-29T02:34:56.042Z,9.83
2018-11-29T02:35:56.028Z,9.86
2018-11-29T02:36:56.015Z,9.86
2018-11-29T02:37:55.719Z,9.94
2018-11-29T02:38:55.980Z,9.88
2018-11-29T02:39:55.717Z,9.91
2018-11-29T02:40:55.931Z,9.94
2018-11-29T02:41:55.415Z,9.93
2018-11-29T02:42:55.890Z,9.94
2018-11-29T02:43:55.611Z,9.93
2018-11-29T02:44:55.344Z,10
2018-11-29T02:45:55.651Z,9.97
2018-11-29T02:46:55.571Z,9.96
2018-11-29T02:47:55.551Z,9.99
2018-11-29T02:48:55.533Z,9.97
2018-11-29T02:49:55.512Z,9.97
2018-11-29T02:50:55.750Z,9.97
2018-11-29T02:51:55.712Z,10
2018-11-29T02:52:55.705Z,10
2018-11-29T02:53:55.679Z,9.94
2018-11-29T02:54:55.693Z,9.93
2018-11-29T02:55:55.442Z,9.96
2018-11-29T02:56:55.383Z,10
2018-11-29T02:57:55.095Z,9.97
2018-11-29T02:58:55.339Z,9.94
2018-11-29T02:59:55.573Z,9.97
2018-11-29T03:00:55.544Z,10.01
2018-11-29T03:01:55.531Z,10
2018-11-29T03:02:55.280Z,10.04
2018-11-29T03:03:55.240Z,9.99
2018-11-29T03:04:55.489Z,9.93
2018-11-29T03:05:55.201Z,9.97
2018-11-29T03:06:55.182Z,9.99
2018-11-29T03:07:55.168Z,9.91
2018-11-29T03:08:55.421Z,9.97
2018-11-29T03:09:55.423Z,9.97
2018-11-29T03:10:54.855Z,9.88
2018-11-29T03:11:55.338Z,9.83
2018-11-29T03:12:55.333Z,9.88
2018-11-29T03:13:55.348Z,9.96
2018-11-29T03:14:55.343Z,9.96
2018-11-29T03:15:55.019Z,10
2018-11-29T03:16:55.025Z,10
2018-11-29T03:17:55.444Z,10
2018-11-29T03:18:54.992Z,9.97
2018-11-29T03:19:55.210Z,9.91
2018-11-29T03:20:54.932Z,9.91
2018-11-29T03:21:54.918Z,10
2018-11-29T03:22:55.145Z,9.93
2018-11-29T03:23:54.609Z,9.97
2018-11-29T03:24:54.850Z,9.91
2018-11-29T03:25:55.086Z,9.99
2018-11-29T03:26:55.072Z,9.96
2018-11-29T03:27:55.080Z,9.94
2018-11-29T03:28:54.773Z,9.96
2018-11-29T03:29:54.759Z,10.01
2018-11-29T03:30:54.514Z,10
2018-11-29T03:31:54.997Z,9.99
2018-11-29T03:32:55.016Z,9.93
2018-11-29T03:33:54.688Z,9.93
2018-11-29T03:34:54.408Z,9.96
2018-11-29T03:35:54.644Z,9.94
2018-11-29T03:36:54.891Z,9.93
2018-11-29T03:37:54.893Z,9.97
2018-11-29T03:38:54.592Z,9.97
2018-11-29T03:39:54.577Z,9.97
2018-11-29T03:40:54.802Z,10.01
2018-11-29T03:41:54.782Z,10.04
2018-11-29T03:42:54.768Z,9.96
2018-11-29T03:43:54.497Z,10
2018-11-29T03:44:54.488Z,9.96
2018-11-29T03:45:54.713Z,9.99
2018-11-29T03:46:54.448Z,9.94
2018-11-29T03:47:54.426Z,9.99
2018-11-29T03:48:54.144Z,9.96
2018-11-29T03:49:54.390Z,9.99
2018-11-29T03:50:54.370Z,9.97
2018-11-29T03:51:54.366Z,9.99
2018-11-29T03:52:54.329Z,9.96
2018-11-29T03:53:54.566Z,10
2018-11-29T03:54:54.550Z,9.99
2018-11-29T03:55:54.543Z,9.96
2018-11-29T03:56:54.531Z,9.97
2018-11-29T03:57:54.498Z,9.99
2018-11-29T03:58:54.244Z,9.99
2018-11-29T03:59:54.205Z,9.97
2018-11-29T04:00:54.215Z,10.03
2018-11-29T04:01:54.427Z,9.99
2018-11-29T04:02:53.895Z,10.03
2018-11-29T04:03:54.151Z,10.06
2018-11-29T04:04:54.123Z,10.03
2018-11-29T04:05:54.353Z,9.99
2018-11-29T04:06:54.337Z,10.04
2018-11-29T04:07:54.058Z,10.03
2018-11-29T04:08:54.292Z,10.04
2018-11-29T04:09:54.092Z,10.01
2018-11-29T04:10:54.092Z,9.97
2018-11-29T04:11:54.244Z,10
2018-11-29T04:12:54.228Z,10.04
2018-11-29T04:13:53.696Z,9.93
2018-11-29T04:14:53.922Z,9.99
2018-11-29T04:15:53.919Z,9.91
2018-11-29T04:16:54.135Z,9.99
2018-11-29T04:17:53.913Z,9.99
2018-11-29T04:18:53.857Z,9.99
2018-11-29T04:19:54.094Z,9.93
2018-11-29T04:20:53.818Z,10
2018-11-29T04:21:53.792Z,9.94
2018-11-29T04:22:53.547Z,10
2018-11-29T04:23:54.007Z,9.97
2018-11-29T04:24:53.991Z,9.97
2018-11-29T04:25:55.152Z,10.01
2018-11-29T04:26:53.963Z,10.04
2018-11-29T04:27:53.948Z,10.03
2018-11-29T04:28:53.667Z,10.01
2018-11-29T04:29:53.914Z,10.03
2018-11-29T04:30:53.684Z,10
2018-11-29T04:31:53.863Z,9.96
2018-11-29T04:32:53.602Z,10.01
2018-11-29T04:33:53.568Z,9.97
2018-11-29T04:34:53.810Z,9.99
2018-11-29T04:35:53.808Z,10.04
2018-11-29T04:36:53.773Z,10
2018-11-29T04:37:53.512Z,9.97
2018-11-29T04:38:53.477Z,10.04
2018-11-29T04:39:53.459Z,10.04
2018-11-29T04:40:53.450Z,10.03
2018-11-29T04:41:53.682Z,9.99
2018-11-29T04:42:53.660Z,10.01
2018-11-29T04:43:53.389Z,10.06
2018-11-29T04:44:53.377Z,10
2018-11-29T04:45:53.610Z,10.01
2018-11-29T04:46:53.359Z,10.03
2018-11-29T04:47:53.593Z,10.01
2018-11-29T04:48:53.551Z,10.06
2018-11-29T04:49:53.278Z,10.01
2018-11-29T04:50:54.418Z,10.04
2018-11-29T04:51:53.245Z,9.94
2018-11-29T04:52:52.985Z,9.97
2018-11-29T04:53:53.205Z,9.88
2018-11-29T04:54:53.190Z,9.82
2018-11-29T04:55:52.948Z,9.71
2018-11-29T04:56:53.161Z,9.75
2018-11-29T04:57:52.872Z,9.71
2018-11-29T04:58:53.364Z,9.6
2018-11-29T04:59:53.342Z,9.66
2018-11-29T05:00:52.825Z,9.61
2018-11-29T05:01:53.307Z,9.52
2018-11-29T05:02:53.290Z,9.53
2018-11-29T05:03:53.023Z,9.52
2018-11-29T05:04:53.247Z,9.64
2018-11-29T05:05:52.989Z,9.64
2018-11-29T05:06:53.214Z,9.6
2018-11-29T05:07:52.948Z,9.63
2018-11-29T05:08:53.210Z,9.58
2018-11-29T05:09:52.651Z,9.71
2018-11-29T05:10:53.136Z,9.73
2018-11-29T05:11:52.646Z,9.7
2018-11-29T05:12:53.111Z,9.67
2018-11-29T05:13:52.840Z,9.81
2018-11-29T05:14:53.072Z,9.79
2018-11-29T05:15:53.046Z,9.76
2018-11-29T05:16:53.032Z,9.83
2018-11-29T05:17:52.950Z,9.81
2018-11-29T05:18:52.737Z,9.73
2018-11-29T05:19:52.971Z,9.81
2018-11-29T05:20:52.960Z,9.88
2018-11-29T05:21:52.955Z,9.91
2018-11-29T05:22:52.659Z,9.89
2018-11-29T05:23:52.639Z,9.94
2018-11-29T05:24:52.888Z,9.93
2018-11-29T05:25:52.857Z,9.88
2018-11-29T05:26:52.597Z,9.89
2018-11-29T05:27:52.837Z,9.99
2018-11-29T05:28:52.597Z,9.91
2018-11-29T05:29:52.781Z,9.94
2018-11-29T05:30:52.760Z,9.94
2018-11-29T05:31:52.752Z,9.94
2018-11-29T05:32:52.470Z,10.01
2018-11-29T05:33:52.450Z,9.96
2018-11-29T05:34:52.687Z,9.97
2018-11-29T05:35:52.414Z,9.94
2018-11-29T05:36:52.661Z,9.89
2018-11-29T05:37:52.384Z,9.96
2018-11-29T05:38:52.613Z,9.97
2018-11-29T05:39:52.135Z,10
2018-11-29T05:40:52.322Z,10
2018-11-29T05:41:52.568Z,10.03
2018-11-29T05:42:52.535Z,9.97
2018-11-29T05:43:52.271Z,10
2018-11-29T05:44:52.288Z,10.03
2018-11-29T05:45:51.973Z,10.06
2018-11-29T05:46:52.470Z,10.09
2018-11-29T05:47:52.188Z,10.04
2018-11-29T05:48:52.428Z,10.04
2018-11-29T05:49:51.900Z,10.09
2018-11-29T05:50:52.168Z,10
2018-11-29T05:51:52.119Z,10.06
2018-11-29T05:52:52.100Z,10.04
2018-11-29T05:53:51.823Z,10.01
2018-11-29T05:54:52.073Z,10.06
2018-11-29T05:55:51.790Z,10
2018-11-29T05:56:52.301Z,10.12
2018-11-29T05:57:52.004Z,10.03
2018-11-29T05:58:52.239Z,10.07
2018-11-29T05:59:52.220Z,10.21
2018-11-29T06:00:52.234Z,10.14
2018-11-29T06:01:51.674Z,10.15
2018-11-29T06:02:51.911Z,10.18
2018-11-29T06:03:52.163Z,10.21
2018-11-29T06:04:52.135Z,10.17
2018-11-29T06:05:52.109Z,10.22
2018-11-29T06:06:51.584Z,10.21
2018-11-29T06:07:51.824Z,10.24
2018-11-29T06:08:51.799Z,10.28
2018-11-29T06:09:52.054Z,10.24
2018-11-29T06:10:52.018Z,10.34
2018-11-29T06:11:51.749Z,10.25
2018-11-29T06:12:51.732Z,10.32
2018-11-29T06:13:51.968Z,10.34
2018-11-29T06:14:51.722Z,10.26
2018-11-29T06:15:51.929Z,10.3
2018-11-29T06:16:51.905Z,10.32
2018-11-29T06:17:51.796Z,10.21
2018-11-29T06:18:51.883Z,10.3
2018-11-29T06:19:51.344Z,10.19
2018-11-29T06:20:51.377Z,10.3
2018-11-29T06:21:51.819Z,10.32
2018-11-29T06:22:51.801Z,10.3
2018-11-29T06:23:51.271Z,10.32
2018-11-29T06:24:51.512Z,10.25
2018-11-29T06:25:51.745Z,10.3
2018-11-29T06:26:51.730Z,10.26
2018-11-29T06:27:51.485Z,10.22
2018-11-29T06:28:51.445Z,10.3
2018-11-29T06:29:51.170Z,10.26
2018-11-29T06:30:51.398Z,10.24
2018-11-29T06:31:51.385Z,10.32
2018-11-29T06:32:52.384Z,10.3
2018-11-29T06:33:51.625Z,10.34
2018-11-29T06:34:51.343Z,10.3
2018-11-29T06:35:51.319Z,10.34
2018-11-29T06:36:51.561Z,10.25
2018-11-29T06:37:51.285Z,10.25
2018-11-29T06:38:51.257Z,10.3
2018-11-29T06:39:51.239Z,10.19
2018-11-29T06:40:51.531Z,10.36
2018-11-29T06:41:51.454Z,10.25
2018-11-29T06:42:51.179Z,10.28
2018-11-29T06:43:51.163Z,10.3
2018-11-29T06:44:50.891Z,10.33
2018-11-29T06:45:51.376Z,10.37
2018-11-29T06:46:51.367Z,10.32
2018-11-29T06:47:50.838Z,10.43
2018-11-29T06:48:51.102Z,10.34
2018-11-29T06:49:51.325Z,10.33
2018-11-29T06:50:50.792Z,10.28
2018-11-29T06:51:51.025Z,10.37
2018-11-29T06:52:51.262Z,10.34
2018-11-29T06:53:51.235Z,10.32
2018-11-29T06:54:50.961Z,10.34
2018-11-29T06:55:50.947Z,10.3
2018-11-29T06:56:51.181Z,10.3
2018-11-29T06:57:50.665Z,10.43
2018-11-29T06:58:50.649Z,10.43
2018-11-29T06:59:51.135Z,10.4
2018-11-29T07:00:50.857Z,10.4
2018-11-29T07:01:51.097Z,10.44
2018-11-29T07:02:51.071Z,10.44
2018-11-29T07:03:50.808Z,10.36
2018-11-29T07:04:51.033Z,10.43
2018-11-29T07:05:51.023Z,10.37
2018-11-29T07:06:50.751Z,10.4
2018-11-29T07:07:50.979Z,10.42
2018-11-29T07:08:50.473Z,10.47
2018-11-29T07:09:50.690Z,10.47
2018-11-29T07:10:50.676Z,10.42
2018-11-29T07:11:50.659Z,10.51
2018-11-29T07:12:50.650Z,10.47
2018-11-29T07:13:50.871Z,10.44
2018-11-29T07:14:50.345Z,10.53
2018-11-29T07:15:50.583Z,10.51
2018-11-29T07:16:50.572Z,10.55
2018-11-29T07:17:51.215Z,10.51
2018-11-29T07:18:50.527Z,10.52
2018-11-29T07:19:50.515Z,10.53
2018-11-29T07:20:50.491Z,10.51
2018-11-29T07:21:50.726Z,10.56
2018-11-29T07:22:50.708Z,10.52
2018-11-29T07:23:50.432Z,10.65
2018-11-29T07:24:50.159Z,10.6
2018-11-29T07:25:50.653Z,10.68
2018-11-29T07:26:50.637Z,10.58
2018-11-29T07:27:50.615Z,10.63
2018-11-29T07:28:50.343Z,10.76
2018-11-29T07:29:50.321Z,10.65
2018-11-29T07:30:50.566Z,10.62
2018-11-29T07:31:50.545Z,10.62
2018-11-29T07:32:50.022Z,10.66
2018-11-29T07:33:50.506Z,10.63
2018-11-29T07:34:50.235Z,10.58
2018-11-29T07:35:50.240Z,10.66
2018-11-29T07:36:50.207Z,10.55
2018-11-29T07:37:50.184Z,10.6
2018-11-29T07:38:50.167Z,10.52
2018-11-29T07:39:50.399Z,10.55
2018-11-29T07:40:50.381Z,10.53
2018-11-29T07:41:49.856Z,10.53
2018-11-29T07:42:50.143Z,10.47
2018-11-29T07:43:49.817Z,10.55
2018-11-29T07:44:50.306Z,10.55
2018-11-29T07:45:50.041Z,10.56
2018-11-29T07:46:50.016Z,10.56
2018-11-29T07:47:50.251Z,10.55
2018-11-29T07:48:49.985Z,10.56
2018-11-29T07:49:49.966Z,10.52
2018-11-29T07:50:49.939Z,10.56
2018-11-29T07:51:50.180Z,10.56
2018-11-29T07:52:49.650Z,10.56
2018-11-29T07:53:49.926Z,10.55
2018-11-29T07:54:50.125Z,10.6
2018-11-29T07:55:50.110Z,10.63
2018-11-29T07:56:49.582Z,10.58
2018-11-29T07:57:49.847Z,10.53
2018-11-29T07:58:54.926Z,10.47
2018-11-29T07:59:49.786Z,10.55
2018-11-29T08:00:49.509Z,10.52
2018-11-29T08:01:50.002Z,10.53
2018-11-29T08:02:50.001Z,10.52
2018-11-29T08:03:49.717Z,10.53
2018-11-29T08:04:49.960Z,10.47
2018-11-29T08:05:49.934Z,10.58
2018-11-29T08:06:49.654Z,10.52
2018-11-29T08:07:52.241Z,10.52
2018-11-29T08:08:49.871Z,10.42
2018-11-29T08:09:49.853Z,10.44
2018-11-29T08:10:49.587Z,10.53
2018-11-29T08:11:49.311Z,10.47
2018-11-29T08:12:49.805Z,10.4
2018-11-29T08:13:49.805Z,10.44
2018-11-29T08:14:49.770Z,10.32
2018-11-29T08:15:49.494Z,10.36
2018-11-29T08:16:49.483Z,10.34
2018-11-29T08:17:49.471Z,10.3
2018-11-29T08:18:49.700Z,10.37
2018-11-29T08:19:49.681Z,10.3
2018-11-29T08:20:49.422Z,10.4
2018-11-29T08:21:49.399Z,10.36
2018-11-29T08:22:49.628Z,10.36
2018-11-29T08:23:49.605Z,10.34
2018-11-29T08:24:49.593Z,10.33
2018-11-29T08:25:49.320Z,10.33
2018-11-29T08:26:49.552Z,10.36
2018-11-29T08:27:49.287Z,10.46
2018-11-29T08:28:49.271Z,10.4
2018-11-29T08:29:49.251Z,10.4
2018-11-29T08:30:48.978Z,10.44
2018-11-29T08:31:49.209Z,10.52
2018-11-29T08:32:49.451Z,10.37
2018-11-29T08:33:49.181Z,10.44
2018-11-29T08:34:48.911Z,10.37
2018-11-29T08:35:48.885Z,10.42
2018-11-29T08:36:49.378Z,10.36
2018-11-29T08:37:49.358Z,10.39
2018-11-29T08:38:49.099Z,10.4
2018-11-29T08:39:48.815Z,10.43
2018-11-29T08:40:49.311Z,10.56
2018-11-29T08:41:48.789Z,10.51
2018-11-29T08:42:49.011Z,10.52
2018-11-29T08:43:49.261Z,10.46
2018-11-29T08:44:49.248Z,10.52
2018-11-29T08:45:48.964Z,10.51
2018-11-29T08:46:48.739Z,10.53
2018-11-29T08:47:49.204Z,10.53
2018-11-29T08:48:48.940Z,10.55
2018-11-29T08:49:48.893Z,10.56
2018-11-29T08:50:48.632Z,10.52
2018-11-29T08:51:48.625Z,10.56
2018-11-29T08:52:48.844Z,10.58
2018-11-29T08:53:49.076Z,10.55
2018-11-29T08:54:49.061Z,10.52
2018-11-29T08:55:49.040Z,10.55
2018-11-29T08:56:49.033Z,10.55
2018-11-29T08:57:49.019Z,10.6
2018-11-29T08:58:48.732Z,10.59
2018-11-29T08:59:48.973Z,10.59
2018-11-29T09:00:48.959Z,10.63
2018-11-29T09:01:48.938Z,10.74
2018-11-29T09:02:48.668Z,10.71
2018-11-29T09:03:48.901Z,10.65
2018-11-29T09:04:48.641Z,10.63
2018-11-29T09:05:48.868Z,10.65
2018-11-29T09:06:48.595Z,10.7
2018-11-29T09:07:48.827Z,10.65
2018-11-29T09:08:48.557Z,10.71
2018-11-29T09:09:48.588Z,10.66
2018-11-29T09:10:48.785Z,10.77
2018-11-29T09:11:49.955Z,10.65
2018-11-29T09:12:48.496Z,10.71
2018-11-29T09:13:48.472Z,10.71
2018-11-29T09:14:48.202Z,10.66
2018-11-29T09:15:48.694Z,10.66
2018-11-29T09:16:48.703Z,10.74
2018-11-29T09:17:48.673Z,10.66
2018-11-29T09:18:48.387Z,10.78
2018-11-29T09:19:48.383Z,10.78
2018-11-29T09:20:48.361Z,10.77
2018-11-29T09:21:48.338Z,10.73
2018-11-29T09:22:48.323Z,10.78
2018-11-29T09:23:48.556Z,10.78
2018-11-29T09:24:48.532Z,10.77
2018-11-29T09:25:48.271Z,10.78
2018-11-29T09:26:48.501Z,10.78
2018-11-29T09:27:48.230Z,10.78
2018-11-29T09:28:48.212Z,10.77
2018-11-29T09:29:48.200Z,10.83
2018-11-29T09:30:47.932Z,10.78
2018-11-29T09:31:48.414Z,10.86
2018-11-29T09:32:48.405Z,10.86
2018-11-29T09:33:48.396Z,10.86
2018-11-29T09:34:48.110Z,10.95
2018-11-29T09:35:48.094Z,10.88
2018-11-29T09:36:48.084Z,10.95
2018-11-29T09:37:48.061Z,11.01
2018-11-29T09:38:48.300Z,10.95
2018-11-29T09:39:48.024Z,10.92
2018-11-29T09:40:48.266Z,10.94
2018-11-29T09:41:47.735Z,10.99
2018-11-29T09:42:47.980Z,10.98
2018-11-29T09:43:47.969Z,11.01
2018-11-29T09:44:47.948Z,11.02
2018-11-29T09:45:47.922Z,10.99
2018-11-29T09:46:47.907Z,11.03
2018-11-29T09:47:47.894Z,11.03
2018-11-29T09:48:47.625Z,11.07
2018-11-29T09:49:47.615Z,11.07
2018-11-29T09:50:47.846Z,11.02
2018-11-29T09:51:47.837Z,11.06
2018-11-29T09:52:47.814Z,11.17
2018-11-29T09:53:48.052Z,11.13
2018-11-29T09:54:47.524Z,11.16
2018-11-29T09:55:48.008Z,11.1
2018-11-29T09:56:47.743Z,11.11
2018-11-29T09:57:47.976Z,11.13
2018-11-29T09:58:47.708Z,11.2
2018-11-29T09:59:47.945Z,11.29
2018-11-29T10:00:47.944Z,11.34
2018-11-29T10:01:47.756Z,11.31
2018-11-29T10:02:47.669Z,11.31
2018-11-29T10:03:47.875Z,11.35
2018-11-29T10:04:48.049Z,11.39
2018-11-29T10:05:47.839Z,11.32
2018-11-29T10:06:47.834Z,11.44
2018-11-29T10:07:47.559Z,11.52
2018-11-29T10:08:47.537Z,11.53
2018-11-29T10:09:47.520Z,11.56
2018-11-29T10:10:47.752Z,11.62
2018-11-29T10:11:47.487Z,11.67
2018-11-29T10:12:47.474Z,11.68
2018-11-29T10:13:50.846Z,11.68
2018-11-29T10:14:47.964Z,11.74
2018-11-29T10:15:47.416Z,11.82
2018-11-29T10:16:47.409Z,11.82
2018-11-29T10:17:47.384Z,11.85
2018-11-29T10:18:47.630Z,11.86
2018-11-29T10:19:47.356Z,11.96
2018-11-29T10:20:47.588Z,11.86
2018-11-29T10:21:47.575Z,11.96
2018-11-29T10:22:47.548Z,11.99
2018-11-29T10:23:47.278Z,11.96
2018-11-29T10:24:47.565Z,12.08
2018-11-29T10:25:46.984Z,12.06
2018-11-29T10:26:47.226Z,12.06
2018-11-29T10:27:47.215Z,12.05
2018-11-29T10:28:47.448Z,12.09
2018-11-29T10:29:47.430Z,12.08
2018-11-29T10:30:47.417Z,12.09
2018-11-29T10:31:47.140Z,12.13
2018-11-29T10:32:47.374Z,12.08
2018-11-29T10:33:47.370Z,12.01
2018-11-29T10:34:47.345Z,11.99
2018-11-29T10:35:47.522Z,11.96
2018-11-29T10:36:47.307Z,11.97
2018-11-29T10:37:47.299Z,11.96
2018-11-29T10:38:47.048Z,11.96
2018-11-29T10:39:47.013Z,11.96
2018-11-29T10:40:46.994Z,11.94
2018-11-29T10:41:46.975Z,11.96
2018-11-29T10:42:46.961Z,11.93
2018-11-29T10:43:47.194Z,11.99
2018-11-29T10:44:46.946Z,11.99
2018-11-29T10:45:47.164Z,12.08
2018-11-29T10:46:47.146Z,12.11
2018-11-29T10:47:52.126Z,12.08
2018-11-29T10:48:47.112Z,12.09
2018-11-29T10:49:47.182Z,12.09
2018-11-29T10:50:46.661Z,12.08
2018-11-29T10:51:46.799Z,11.99
2018-11-29T10:52:46.793Z,11.9
2018-11-29T10:53:46.515Z,11.89
2018-11-29T10:54:46.556Z,11.93
2018-11-29T10:55:46.992Z,11.87
2018-11-29T10:56:46.979Z,11.97
2018-11-29T10:57:46.723Z,12.01
2018-11-29T10:58:46.433Z,11.96
2018-11-29T10:59:46.667Z,11.97
2018-11-29T11:00:46.914Z,12.01
2018-11-29T11:01:46.895Z,11.99
2018-11-29T11:02:46.621Z,12.09
2018-11-29T11:03:46.867Z,12.06
2018-11-29T11:04:46.850Z,12.04
2018-11-29T11:05:46.826Z,12.06
2018-11-29T11:06:46.550Z,12.11
2018-11-29T11:07:46.790Z,12.16
2018-11-29T11:08:46.775Z,12.21
2018-11-29T11:09:46.500Z,12.26
2018-11-29T11:10:46.484Z,12.24
2018-11-29T11:11:46.469Z,12.2
2018-11-29T11:12:46.710Z,12.38
2018-11-29T11:13:46.437Z,12.34
2018-11-29T11:14:46.706Z,12.41
2018-11-29T11:15:46.402Z,12.41
2018-11-29T11:16:46.663Z,12.41
2018-11-29T11:17:46.617Z,12.44
2018-11-29T11:18:46.806Z,12.42
2018-11-29T11:19:46.332Z,12.51
2018-11-29T11:20:46.628Z,12.34
2018-11-29T11:21:46.307Z,12.39
2018-11-29T11:22:46.289Z,12.39
2018-11-29T11:23:46.566Z,12.39
2018-11-29T11:24:45.992Z,12.33
2018-11-29T11:25:46.485Z,12.31
2018-11-29T11:26:46.223Z,12.38
2018-11-29T11:27:46.206Z,12.34
2018-11-29T11:28:46.448Z,12.41
2018-11-29T11:29:46.168Z,12.46
2018-11-29T11:30:45.895Z,12.41
2018-11-29T11:31:46.440Z,12.48
2018-11-29T11:32:46.118Z,12.46
2018-11-29T11:33:46.375Z,12.49
2018-11-29T11:34:46.084Z,12.51
2018-11-29T11:35:46.077Z,12.44
2018-11-29T11:36:46.302Z,12.49
2018-11-29T11:37:46.289Z,12.49
2018-11-29T11:38:46.273Z,12.49
2018-11-29T11:39:45.997Z,12.62
2018-11-29T11:40:46.235Z,12.63
2018-11-29T11:41:45.978Z,12.63
2018-11-29T11:42:45.704Z,12.6
2018-11-29T11:43:46.381Z,12.6
2018-11-29T11:44:45.914Z,12.63
2018-11-29T11:45:45.928Z,12.64
2018-11-29T11:46:45.889Z,12.66
2018-11-29T11:47:46.121Z,12.63
2018-11-29T11:48:46.105Z,12.63
2018-11-29T11:49:45.846Z,12.66
2018-11-29T11:50:46.074Z,12.66
2018-11-29T11:51:45.951Z,12.56
2018-11-29T11:52:46.038Z,12.66
2018-11-29T11:53:46.020Z,12.67
2018-11-29T11:54:46.006Z,12.63
2018-11-29T11:55:45.762Z,12.64
2018-11-29T11:56:45.713Z,12.64
2018-11-29T11:57:45.955Z,12.57
2018-11-29T11:58:45.428Z,12.63
2018-11-29T11:59:45.920Z,12.69
2018-11-29T12:00:45.908Z,12.71
2018-11-29T12:01:45.884Z,12.69
2018-11-29T12:02:45.603Z,12.79
2018-11-29T12:03:45.607Z,12.74
2018-11-29T12:04:48.626Z,12.77
2018-11-29T12:05:45.852Z,12.77
2018-11-29T12:06:45.556Z,12.79
2018-11-29T12:07:45.544Z,12.78
2018-11-29T12:08:45.779Z,12.79
2018-11-29T12:09:45.773Z,12.79
2018-11-29T12:10:45.486Z,12.71
2018-11-29T12:11:45.607Z,12.79
2018-11-29T12:12:45.494Z,12.79
2018-11-29T12:13:45.699Z,12.79
2018-11-29T12:14:45.432Z,12.71
2018-11-29T12:15:45.661Z,12.79
2018-11-29T12:16:45.396Z,12.71
2018-11-29T12:17:45.386Z,12.79
2018-11-29T12:18:45.606Z,12.74
2018-11-29T12:19:45.695Z,12.7
2018-11-29T12:20:45.586Z,12.71
2018-11-29T12:21:45.565Z,12.75
2018-11-29T12:22:45.542Z,12.77
2018-11-29T12:23:45.525Z,12.75
2018-11-29T12:24:45.518Z,12.81
2018-11-29T12:25:45.239Z,12.74
2018-11-29T12:26:44.972Z,12.74
2018-11-29T12:27:45.463Z,12.77
2018-11-29T12:28:45.450Z,12.77
2018-11-29T12:29:45.182Z,12.79
2018-11-29T12:30:45.415Z,12.78
2018-11-29T12:31:45.148Z,12.78
2018-11-29T12:32:45.375Z,12.81
2018-11-29T12:33:45.108Z,12.78
2018-11-29T12:34:45.158Z,12.88
2018-11-29T12:35:45.086Z,12.81
2018-11-29T12:36:45.050Z,12.79
2018-11-29T12:37:45.060Z,12.75
2018-11-29T12:38:44.779Z,12.74
2018-11-29T12:39:45.261Z,12.74
2018-11-29T12:40:44.735Z,12.7
2018-11-29T12:41:44.987Z,12.69
2018-11-29T12:42:44.709Z,12.69
2018-11-29T12:43:45.215Z,12.49
2018-11-29T12:44:44.929Z,12.46
2018-11-29T12:45:45.167Z,12.44
2018-11-29T12:46:44.902Z,12.21
2018-11-29T12:47:44.890Z,12.2
2018-11-29T12:48:45.119Z,12.08
2018-11-29T12:49:45.108Z,11.85
2018-11-29T12:50:45.090Z,11.85
2018-11-29T12:51:44.806Z,11.68
2018-11-29T12:52:45.102Z,11.62
2018-11-29T12:53:44.776Z,11.53
2018-11-29T12:54:44.761Z,11.49
2018-11-29T12:55:44.758Z,11.5
2018-11-29T12:56:44.978Z,11.35
2018-11-29T12:57:44.973Z,11.34
2018-11-29T12:58:44.950Z,11.43
2018-11-29T12:59:44.984Z,11.32
2018-11-29T13:00:44.662Z,11.28
2018-11-29T13:01:44.890Z,11.34
2018-11-29T13:02:45.467Z,11.27
2018-11-29T13:03:44.620Z,11.09
2018-11-29T13:04:44.591Z,11.07
2018-11-29T13:05:44.822Z,11.11
2018-11-29T13:06:44.295Z,11.07